sensor_id;sensor_type;location;lat;lon;timestamp;pressure;altitude;pressure_sealevel;temperature;humidity
10706;BME280;5404;42.656;23.336;2023-02-24T00:01:35;94897.47;;;7.69;100.00
10706;BME280;5404;42.656;23.336;2023-02-24T00:04:06;94913.13;;;7.70;100.00
10706;BME280;5404;42.656;23.336;2023-02-24T00:06:33;94891.44;;;7.58;100.00
10706;BME280;5404;42.656;23.336;2023-02-24T00:11:30;94885.63;;;7.56;100.00
10706;BME280;5404;42.656;23.336;2023-02-24T00:13:56;94886.41;;;7.57;100.00
10706;BME280;5404;42.656;23.336;2023-02-24T00:16:22;94897.53;;;7.59;100.00
10706;BME280;5404;42.656;23.336;2023-02-24T00:18:49;94889.84;;;7.57;100.00
10706;BME280;5404;42.656;23.336;2023-02-24T00:21:16;94869.00;;;7.41;100.00
10706;BME280;5404;42.656;23.336;2023-02-24T00:23:44;94887.47;;;7.56;100.00
10706;BME280;5404;42.656;23.336;2023-02-24T00:26:13;94881.16;;;7.47;100.00
10706;BME280;5404;42.656;23.336;2023-02-24T00:28:40;94888.59;;;7.50;100.00
10706;BME280;5404;42.656;23.336;2023-02-24T00:31:09;94885.94;;;7.45;100.00
10706;BME280;5404;42.656;23.336;2023-02-24T00:33:35;94895.47;;;7.46;100.00
10706;BME280;5404;42.656;23.336;2023-02-24T00:36:12;94893.63;;;7.46;100.00
10706;BME280;5404;42.656;23.336;2023-02-24T00:38:39;94876.69;;;7.37;100.00
10706;BME280;5404;42.656;23.336;2023-02-24T00:41:14;94880.16;;;7.38;100.00
10706;BME280;5404;42.656;23.336;2023-02-24T00:43:40;94888.09;;;7.38;100.00
10706;BME280;5404;42.656;23.336;2023-02-24T00:46:12;94883.31;;;7.35;100.00
10706;BME280;5404;42.656;23.336;2023-02-24T00:48:42;94880.69;;;7.35;100.00
10706;BME280;5404;42.656;23.336;2023-02-24T00:51:12;94886.78;;;7.35;100.00
10706;BME280;5404;42.656;23.336;2023-02-24T00:53:38;94871.97;;;7.29;100.00
10706;BME280;5404;42.656;23.336;2023-02-24T00:56:05;94852.69;;;7.14;100.00
10706;BME280;5404;42.656;23.336;2023-02-24T00:58:33;94866.69;;;7.29;100.00
10706;BME280;5404;42.656;23.336;2023-02-24T01:00:59;94861.09;;;7.31;100.00
10706;BME280;5404;42.656;23.336;2023-02-24T01:03:26;94863.22;;;7.29;100.00
10706;BME280;5404;42.656;23.336;2023-02-24T01:05:52;94845.78;;;7.13;100.00
10706;BME280;5404;42.656;23.336;2023-02-24T01:08:18;94860.59;;;7.24;100.00
10706;BME280;5404;42.656;23.336;2023-02-24T01:10:59;94839.94;;;7.16;100.00
10706;BME280;5404;42.656;23.336;2023-02-24T01:13:44;94862.16;;;7.25;100.00
10706;BME280;5404;42.656;23.336;2023-02-24T01:16:10;94848.69;;;7.16;100.00
10706;BME280;5404;42.656;23.336;2023-02-24T01:18:43;94855.31;;;7.24;100.00
10706;BME280;5404;42.656;23.336;2023-02-24T01:21:09;94858.25;;;7.17;100.00
10706;BME280;5404;42.656;23.336;2023-02-24T01:23:36;94853.44;;;7.19;100.00
10706;BME280;5404;42.656;23.336;2023-02-24T01:26:02;94850.53;;;7.21;100.00
10706;BME280;5404;42.656;23.336;2023-02-24T01:28:27;94848.16;;;7.19;100.00
10706;BME280;5404;42.656;23.336;2023-02-24T01:30:53;94848.94;;;7.20;100.00
10706;BME280;5404;42.656;23.336;2023-02-24T01:33:20;94846.84;;;7.17;100.00
10706;BME280;5404;42.656;23.336;2023-02-24T01:35:46;94839.44;;;7.19;100.00
10706;BME280;5404;42.656;23.336;2023-02-24T01:38:12;94743.28;;;6.54;100.00
10706;BME280;5404;42.656;23.336;2023-02-24T01:40:38;94842.84;;;7.19;100.00
10706;BME280;5404;42.656;23.336;2023-02-24T01:43:04;94830.69;;;7.13;100.00
10706;BME280;5404;42.656;23.336;2023-02-24T01:45:37;94837.06;;;7.17;100.00
10706;BME280;5404;42.656;23.336;2023-02-24T01:48:06;94840.75;;;7.16;100.00
10706;BME280;5404;42.656;23.336;2023-02-24T01:50:33;94833.63;;;7.12;100.00
10706;BME280;5404;42.656;23.336;2023-02-24T01:53:01;94837.88;;;7.07;100.00
10706;BME280;5404;42.656;23.336;2023-02-24T01:55:35;94831.00;;;7.06;100.00
10706;BME280;5404;42.656;23.336;2023-02-24T01:58:11;94827.84;;;6.99;100.00
10706;BME280;5404;42.656;23.336;2023-02-24T02:00:40;94840.78;;;7.06;100.00
10706;BME280;5404;42.656;23.336;2023-02-24T02:03:24;94834.94;;;7.09;100.00
10706;BME280;5404;42.656;23.336;2023-02-24T02:05:58;94827.81;;;7.09;100.00
10706;BME280;5404;42.656;23.336;2023-02-24T02:08:26;94828.84;;;7.08;100.00
10706;BME280;5404;42.656;23.336;2023-02-24T02:10:52;94811.72;;;6.91;100.00
10706;BME280;5404;42.656;23.336;2023-02-24T02:13:25;94822.28;;;7.01;100.00
10706;BME280;5404;42.656;23.336;2023-02-24T02:16:02;94828.38;;;7.01;100.00
10706;BME280;5404;42.656;23.336;2023-02-24T02:30:22;94834.22;;;6.88;100.00
10706;BME280;5404;42.656;23.336;2023-02-24T02:35:44;94831.63;;;6.78;100.00
10706;BME280;5404;42.656;23.336;2023-02-24T02:38:39;94822.09;;;6.77;100.00
10706;BME280;5404;42.656;23.336;2023-02-24T02:44:08;94830.03;;;6.77;100.00
10706;BME280;5404;42.656;23.336;2023-02-24T02:49:29;94825.25;;;6.79;100.00
10706;BME280;5404;42.656;23.336;2023-02-24T02:52:02;94836.91;;;6.78;100.00
10706;BME280;5404;42.656;23.336;2023-02-24T02:54:51;94813.09;;;6.73;100.00
10706;BME280;5404;42.656;23.336;2023-02-24T02:57:22;94824.19;;;6.85;100.00
10706;BME280;5404;42.656;23.336;2023-02-24T03:00:13;94817.81;;;6.86;100.00
10706;BME280;5404;42.656;23.336;2023-02-24T03:02:48;94803.81;;;6.76;100.00
10706;BME280;5404;42.656;23.336;2023-02-24T03:05:19;94810.41;;;6.83;100.00
10706;BME280;5404;42.656;23.336;2023-02-24T03:07:50;94768.69;;;6.60;100.00
10706;BME280;5404;42.656;23.336;2023-02-24T03:10:36;94806.97;;;6.83;100.00
10706;BME280;5404;42.656;23.336;2023-02-24T03:13:05;94809.63;;;6.83;100.00
10706;BME280;5404;42.656;23.336;2023-02-24T03:15:33;94815.16;;;6.86;100.00
10706;BME280;5404;42.656;23.336;2023-02-24T03:18:13;94813.59;;;6.85;100.00
10706;BME280;5404;42.656;23.336;2023-02-24T03:20:51;94810.66;;;6.87;100.00
10706;BME280;5404;42.656;23.336;2023-02-24T03:23:24;94805.94;;;6.84;100.00
10706;BME280;5404;42.656;23.336;2023-02-24T03:25:59;94815.16;;;6.86;100.00
10706;BME280;5404;42.656;23.336;2023-02-24T03:31:16;94809.09;;;6.86;100.00
10706;BME280;5404;42.656;23.336;2023-02-24T03:34:00;94809.88;;;6.86;100.00
10706;BME280;5404;42.656;23.336;2023-02-24T03:36:29;94810.66;;;6.87;100.00
10706;BME280;5404;42.656;23.336;2023-02-24T03:38:56;94807.22;;;6.86;100.00
10706;BME280;5404;42.656;23.336;2023-02-24T03:41:28;94803.53;;;6.87;100.00
10706;BME280;5404;42.656;23.336;2023-02-24T03:43:57;94805.09;;;6.88;100.00
10706;BME280;5404;42.656;23.336;2023-02-24T03:46:25;94804.31;;;6.93;100.00
10706;BME280;5404;42.656;23.336;2023-02-24T03:49:00;94806.69;;;6.94;100.00
10706;BME280;5404;42.656;23.336;2023-02-24T03:51:27;94803.22;;;6.94;100.00
10706;BME280;5404;42.656;23.336;2023-02-24T03:54:03;94801.66;;;6.93;100.00
10706;BME280;5404;42.656;23.336;2023-02-24T03:56:58;94767.34;;;6.63;100.00
10706;BME280;5404;42.656;23.336;2023-02-24T03:59:40;94800.59;;;6.89;100.00
10706;BME280;5404;42.656;23.336;2023-02-24T04:02:12;94805.09;;;6.88;100.00
10706;BME280;5404;42.656;23.336;2023-02-24T04:07:39;94808.00;;;6.92;100.00
10706;BME280;5404;42.656;23.336;2023-02-24T04:13:02;94810.41;;;6.88;100.00
10706;BME280;5404;42.656;23.336;2023-02-24T04:18:12;94805.38;;;6.87;100.00
10706;BME280;5404;42.656;23.336;2023-02-24T04:20:40;94774.47;;;6.67;100.00
10706;BME280;5404;42.656;23.336;2023-02-24T04:23:11;94805.63;;;6.90;100.00
10706;BME280;5404;42.656;23.336;2023-02-24T04:25:41;94797.16;;;6.88;100.00
10706;BME280;5404;42.656;23.336;2023-02-24T04:28:08;94801.66;;;6.93;100.00
10706;BME280;5404;42.656;23.336;2023-02-24T04:30:38;94801.94;;;6.81;100.00
10706;BME280;5404;42.656;23.336;2023-02-24T04:33:05;94797.72;;;6.80;100.00
10706;BME280;5404;42.656;23.336;2023-02-24T04:35:31;94799.25;;;6.91;100.00
10706;BME280;5404;42.656;23.336;2023-02-24T04:37:57;94748.50;;;6.69;100.00
10706;BME280;5404;42.656;23.336;2023-02-24T04:40:23;94769.84;;;6.98;100.00
10706;BME280;5404;42.656;23.336;2023-02-24T04:42:50;94774.28;;;7.07;100.00
10706;BME280;5404;42.656;23.336;2023-02-24T04:45:28;94770.84;;;7.07;100.00
10706;BME280;5404;42.656;23.336;2023-02-24T04:47:55;94767.94;;;7.03;100.00
10706;BME280;5404;42.656;23.336;2023-02-24T04:50:31;94772.16;;;7.09;100.00
10706;BME280;5404;42.656;23.336;2023-02-24T04:53:00;94758.66;;;7.11;100.00
10706;BME280;5404;42.656;23.336;2023-02-24T04:55:28;94734.63;;;6.97;100.00
10706;BME280;5404;42.656;23.336;2023-02-24T04:57:58;94770.00;;;7.17;100.00
10706;BME280;5404;42.656;23.336;2023-02-24T05:00:25;94750.19;;;7.09;100.00
10706;BME280;5404;42.656;23.336;2023-02-24T05:02:54;94765.72;;;7.21;100.00
10706;BME280;5404;42.656;23.336;2023-02-24T05:05:21;94745.94;;;7.13;100.00
10706;BME280;5404;42.656;23.336;2023-02-24T05:10:19;94751.97;;;7.24;100.00
10706;BME280;5404;42.656;23.336;2023-02-24T05:12:44;94767.31;;;7.27;100.00
10706;BME280;5404;42.656;23.336;2023-02-24T05:15:10;94747.19;;;7.21;100.00
10706;BME280;5404;42.656;23.336;2023-02-24T05:17:38;94756.50;;;7.18;100.00
10706;BME280;5404;42.656;23.336;2023-02-24T05:20:06;94764.41;;;7.23;100.00
10706;BME280;5404;42.656;23.336;2023-02-24T05:22:51;94775.78;;;7.29;100.00
10706;BME280;5404;42.656;23.336;2023-02-24T05:25:18;94772.06;;;7.25;100.00
10706;BME280;5404;42.656;23.336;2023-02-24T05:27:45;94775.22;;;7.32;100.00
10706;BME280;5404;42.656;23.336;2023-02-24T05:30:11;94772.53;;;7.37;100.00
10706;BME280;5404;42.656;23.336;2023-02-24T05:32:36;94769.56;;;7.43;100.00
10706;BME280;5404;42.656;23.336;2023-02-24T05:35:03;94762.41;;;7.44;100.00
10706;BME280;5404;42.656;23.336;2023-02-24T05:37:28;94770.41;;;7.39;100.00
10706;BME280;5404;42.656;23.336;2023-02-24T05:39:55;94766.72;;;7.35;100.00
10706;BME280;5404;42.656;23.336;2023-02-24T05:42:20;94778.88;;;7.41;100.00
10706;BME280;5404;42.656;23.336;2023-02-24T05:44:46;94771.22;;;7.39;100.00
10706;BME280;5404;42.656;23.336;2023-02-24T05:47:13;94775.72;;;7.39;100.00
10706;BME280;5404;42.656;23.336;2023-02-24T05:49:42;94780.44;;;7.42;100.00
10706;BME280;5404;42.656;23.336;2023-02-24T05:52:08;94778.59;;;7.42;100.00
10706;BME280;5404;42.656;23.336;2023-02-24T05:54:40;94776.75;;;7.43;100.00
10706;BME280;5404;42.656;23.336;2023-02-24T05:57:11;94780.69;;;7.45;100.00
10706;BME280;5404;42.656;23.336;2023-02-24T05:59:38;94779.94;;;7.40;100.00
10706;BME280;5404;42.656;23.336;2023-02-24T06:02:06;94733.69;;;7.22;100.00
10706;BME280;5404;42.656;23.336;2023-02-24T06:04:37;94780.44;;;7.42;100.00
10706;BME280;5404;42.656;23.336;2023-02-24T06:07:20;94787.91;;;7.35;100.00
10706;BME280;5404;42.656;23.336;2023-02-24T06:09:51;94789.31;;;7.27;100.00
10706;BME280;5404;42.656;23.336;2023-02-24T06:12:22;94782.97;;;7.23;100.00
10706;BME280;5404;42.656;23.336;2023-02-24T06:14:48;94780.09;;;7.15;100.00
10706;BME280;5404;42.656;23.336;2023-02-24T06:17:17;94794.13;;;7.15;100.00
10706;BME280;5404;42.656;23.336;2023-02-24T06:19:44;94807.09;;;7.17;100.00
10706;BME280;5404;42.656;23.336;2023-02-24T06:22:14;94797.00;;;7.24;100.00
10706;BME280;5404;42.656;23.336;2023-02-24T06:24:40;94792.16;;;7.36;100.00
10706;BME280;5404;42.656;23.336;2023-02-24T06:27:10;94797.72;;;7.39;100.00
10706;BME280;5404;42.656;23.336;2023-02-24T06:29:42;94795.81;;;7.45;100.00
10706;BME280;5404;42.656;23.336;2023-02-24T06:32:08;94801.34;;;7.48;100.00
10706;BME280;5404;42.656;23.336;2023-02-24T06:34:37;94809.78;;;7.55;100.00
10706;BME280;5404;42.656;23.336;2023-02-24T06:37:04;94796.25;;;7.57;100.00
10706;BME280;5404;42.656;23.336;2023-02-24T06:39:30;94798.38;;;7.60;100.00
10706;BME280;5404;42.656;23.336;2023-02-24T06:42:04;94796.50;;;7.65;100.00
10706;BME280;5404;42.656;23.336;2023-02-24T06:44:34;94802.81;;;7.69;100.00
10706;BME280;5404;42.656;23.336;2023-02-24T06:47:00;94803.59;;;7.70;100.00
10706;BME280;5404;42.656;23.336;2023-02-24T06:49:26;94798.31;;;7.70;100.00
10706;BME280;5404;42.656;23.336;2023-02-24T06:51:52;94800.91;;;7.75;100.00
10706;BME280;5404;42.656;23.336;2023-02-24T06:54:23;94795.84;;;7.78;100.00
10706;BME280;5404;42.656;23.336;2023-02-24T06:56:52;94791.84;;;7.81;100.00
10706;BME280;5404;42.656;23.336;2023-02-24T06:59:19;94790.00;;;7.81;100.00
10706;BME280;5404;42.656;23.336;2023-02-24T07:01:54;94762.03;;;7.65;100.00
10706;BME280;5404;42.656;23.336;2023-02-24T07:04:22;94782.88;;;7.77;100.00
10706;BME280;5404;42.656;23.336;2023-02-24T07:06:52;94781.78;;;7.78;100.00
10706;BME280;5404;42.656;23.336;2023-02-24T07:09:21;94788.19;;;7.77;100.00
10706;BME280;5404;42.656;23.336;2023-02-24T07:11:49;94780.75;;;7.79;100.00
10706;BME280;5404;42.656;23.336;2023-02-24T07:14:21;94781.78;;;7.78;100.00
10706;BME280;5404;42.656;23.336;2023-02-24T07:16:47;94779.38;;;7.81;100.00
10706;BME280;5404;42.656;23.336;2023-02-24T07:19:22;94779.06;;;7.88;100.00
10706;BME280;5404;42.656;23.336;2023-02-24T07:21:49;94763.38;;;7.91;100.00
10706;BME280;5404;42.656;23.336;2023-02-24T07:24:20;94750.97;;;7.87;100.00
10706;BME280;5404;42.656;23.336;2023-02-24T07:26:57;94766.88;;;8.15;100.00
10706;BME280;5404;42.656;23.336;2023-02-24T07:29:24;94764.38;;;8.29;100.00
10706;BME280;5404;42.656;23.336;2023-02-24T07:31:50;94777.63;;;8.34;100.00
10706;BME280;5404;42.656;23.336;2023-02-24T07:34:20;94771.53;;;8.34;100.00
10706;BME280;5404;42.656;23.336;2023-02-24T07:36:50;94768.53;;;8.40;100.00
10706;BME280;5404;42.656;23.336;2023-02-24T07:39:18;94756.81;;;8.41;100.00
10706;BME280;5404;42.656;23.336;2023-02-24T07:41:44;94757.84;;;8.45;100.00
10706;BME280;5404;42.656;23.336;2023-02-24T07:44:10;94739.84;;;8.42;100.00
10706;BME280;5404;42.656;23.336;2023-02-24T07:46:37;94763.84;;;8.56;100.00
10706;BME280;5404;42.656;23.336;2023-02-24T07:49:02;94753.47;;;8.59;100.00
10706;BME280;5404;42.656;23.336;2023-02-24T07:51:29;94752.66;;;8.59;100.00
10706;BME280;5404;42.656;23.336;2023-02-24T07:54:14;94749.44;;;8.62;100.00
10706;BME280;5404;42.656;23.336;2023-02-24T07:56:40;94754.50;;;8.63;100.00
10706;BME280;5404;42.656;23.336;2023-02-24T07:59:12;94753.41;;;8.64;100.00
10706;BME280;5404;42.656;23.336;2023-02-24T08:01:41;94749.59;;;8.70;100.00
10706;BME280;5404;42.656;23.336;2023-02-24T08:04:16;94742.78;;;8.64;100.00
10706;BME280;5404;42.656;23.336;2023-02-24T08:06:43;94749.72;;;8.60;100.00
10706;BME280;5404;42.656;23.336;2023-02-24T08:09:11;94736.44;;;8.60;100.00
10706;BME280;5404;42.656;23.336;2023-02-24T08:11:55;94690.72;;;8.16;100.00
10706;BME280;5404;42.656;23.336;2023-02-24T08:14:25;94711.31;;;8.29;100.00
10706;BME280;5404;42.656;23.336;2023-02-24T08:16:55;94741.31;;;8.53;100.00
10706;BME280;5404;42.656;23.336;2023-02-24T08:19:31;94739.66;;;8.57;100.00
10706;BME280;5404;42.656;23.336;2023-02-24T08:22:15;94729.72;;;8.68;100.00
10706;BME280;5404;42.656;23.336;2023-02-24T08:27:15;94738.94;;;8.75;100.00
10706;BME280;5404;42.656;23.336;2023-02-24T08:29:47;94727.53;;;8.93;100.00
10706;BME280;5404;42.656;23.336;2023-02-24T08:32:39;94725.84;;;9.02;100.00
10706;BME280;5404;42.656;23.336;2023-02-24T08:35:09;94729.44;;;9.30;100.00
10706;BME280;5404;42.656;23.336;2023-02-24T08:37:47;94726.69;;;9.54;100.00
10706;BME280;5404;42.656;23.336;2023-02-24T08:40:20;94687.25;;;9.42;100.00
10706;BME280;5404;42.656;23.336;2023-02-24T08:43:00;94717.50;;;9.65;100.00
10706;BME280;5404;42.656;23.336;2023-02-24T08:45:44;94719.84;;;9.66;100.00
10706;BME280;5404;42.656;23.336;2023-02-24T08:48:12;94723.28;;;9.67;100.00
10706;BME280;5404;42.656;23.336;2023-02-24T08:50:58;94716.31;;;9.71;100.00
10706;BME280;5404;42.656;23.336;2023-02-24T08:53:23;94710.91;;;9.76;100.00
10706;BME280;5404;42.656;23.336;2023-02-24T08:55:57;94723.63;;;9.79;100.00
10706;BME280;5404;42.656;23.336;2023-02-24T08:58:22;94707.88;;;9.82;100.00
10706;BME280;5404;42.656;23.336;2023-02-24T09:00:55;94720.31;;;9.87;100.00
10706;BME280;5404;42.656;23.336;2023-02-24T09:03:27;94713.22;;;9.96;100.00
10706;BME280;5404;42.656;23.336;2023-02-24T09:06:00;94716.81;;;10.05;100.00
10706;BME280;5404;42.656;23.336;2023-02-24T09:08:30;94714.28;;;10.13;100.00
10706;BME280;5404;42.656;23.336;2023-02-24T09:11:00;94710.97;;;10.35;100.00
10706;BME280;5404;42.656;23.336;2023-02-24T09:13:34;94702.78;;;10.45;100.00
10706;BME280;5404;42.656;23.336;2023-02-24T09:16:03;94718.28;;;10.56;100.00
10706;BME280;5404;42.656;23.336;2023-02-24T09:18:29;94707.63;;;10.70;100.00
10706;BME280;5404;42.656;23.336;2023-02-24T09:20:57;94696.97;;;10.70;100.00
10706;BME280;5404;42.656;23.336;2023-02-24T09:24:01;94700.31;;;10.62;100.00
10706;BME280;5404;42.656;23.336;2023-02-24T09:26:32;94688.28;;;10.51;100.00
10706;BME280;5404;42.656;23.336;2023-02-24T09:29:08;94689.97;;;10.61;100.00
10706;BME280;5404;42.656;23.336;2023-02-24T09:31:54;94686.00;;;10.58;100.00
10706;BME280;5404;42.656;23.336;2023-02-24T09:34:30;94696.66;;;10.58;100.00
10706;BME280;5404;42.656;23.336;2023-02-24T09:36:55;94692.94;;;10.59;100.00
10706;BME280;5404;42.656;23.336;2023-02-24T09:39:29;94675.44;;;10.67;100.00
10706;BME280;5404;42.656;23.336;2023-02-24T09:41:57;94674.84;;;10.83;100.00
10706;BME280;5404;42.656;23.336;2023-02-24T09:44:35;94670.25;;;10.97;100.00
10706;BME280;5404;42.656;23.336;2023-02-24T09:52:39;94666.34;;;11.30;100.00
10706;BME280;5404;42.656;23.336;2023-02-24T10:06:33;94644.78;;;11.62;100.00
10706;BME280;5404;42.656;23.336;2023-02-24T10:11:40;94612.53;;;11.50;100.00
10706;BME280;5404;42.656;23.336;2023-02-24T10:14:20;94621.69;;;11.89;100.00
10706;BME280;5404;42.656;23.336;2023-02-24T10:16:48;94631.03;;;12.00;100.00
10706;BME280;5404;42.656;23.336;2023-02-24T10:19:35;94617.97;;;11.90;100.00
10706;BME280;5404;42.656;23.336;2023-02-24T10:22:20;94622.38;;;11.94;100.00
10706;BME280;5404;42.656;23.336;2023-02-24T10:25:01;94598.19;;;11.99;100.00
10706;BME280;5404;42.656;23.336;2023-02-24T10:28:05;94608.31;;;12.11;100.00
10706;BME280;5404;42.656;23.336;2023-02-24T10:30:39;94598.72;;;12.10;100.00
10706;BME280;5404;42.656;23.336;2023-02-24T10:33:43;94585.09;;;12.20;100.00
10706;BME280;5404;42.656;23.336;2023-02-24T10:36:17;94581.19;;;12.26;100.00
10706;BME280;5404;42.656;23.336;2023-02-24T10:38:44;94576.41;;;12.14;100.00
10706;BME280;5404;42.656;23.336;2023-02-24T10:41:10;94584.09;;;11.99;100.00
10706;BME280;5404;42.656;23.336;2023-02-24T10:43:36;94574.53;;;11.76;100.00
10706;BME280;5404;42.656;23.336;2023-02-24T10:46:27;94569.69;;;11.55;100.00
10706;BME280;5404;42.656;23.336;2023-02-24T10:48:59;94567.81;;;11.56;100.00
10706;BME280;5404;42.656;23.336;2023-02-24T10:51:38;94567.66;;;11.61;100.00
10706;BME280;5404;42.656;23.336;2023-02-24T10:54:22;94566.34;;;11.72;100.00
10706;BME280;5404;42.656;23.336;2023-02-24T10:57:20;94543.34;;;11.85;100.00
10706;BME280;5404;42.656;23.336;2023-02-24T11:00:10;94551.75;;;12.09;100.00
10706;BME280;5404;42.656;23.336;2023-02-24T11:02:52;94544.81;;;12.55;100.00
10706;BME280;5404;42.656;23.336;2023-02-24T11:05:37;94539.31;;;13.37;100.00
10706;BME280;5404;42.656;23.336;2023-02-24T11:08:16;94529.25;;;13.89;100.00
10706;BME280;5404;42.656;23.336;2023-02-24T11:11:06;94522.13;;;14.60;100.00
10706;BME280;5404;42.656;23.336;2023-02-24T11:13:32;94506.00;;;15.42;100.00
10706;BME280;5404;42.656;23.336;2023-02-24T11:16:17;94499.72;;;16.55;100.00
10706;BME280;5404;42.656;23.336;2023-02-24T11:19:04;94503.44;;;17.73;100.00
10706;BME280;5404;42.656;23.336;2023-02-24T11:21:30;94474.50;;;18.17;91.08
10706;BME280;5404;42.656;23.336;2023-02-24T11:23:58;94487.22;;;19.20;84.82
10706;BME280;5404;42.656;23.336;2023-02-24T11:26:38;94481.41;;;19.56;77.37
10706;BME280;5404;42.656;23.336;2023-02-24T11:31:47;94474.09;;;19.57;72.82
10706;BME280;5404;42.656;23.336;2023-02-24T11:42:23;94443.94;;;19.17;74.00
10706;BME280;5404;42.656;23.336;2023-02-24T11:48:25;94427.72;;;19.55;72.49
10706;BME280;5404;42.656;23.336;2023-02-24T11:51:11;94426.72;;;19.44;72.51
10706;BME280;5404;42.656;23.336;2023-02-24T11:53:48;94428.66;;;19.24;72.11
10706;BME280;5404;42.656;23.336;2023-02-24T11:56:34;94416.50;;;19.15;73.28
10706;BME280;5404;42.656;23.336;2023-02-24T12:04:30;94400.00;;;18.09;80.41
10706;BME280;5404;42.656;23.336;2023-02-24T12:07:00;94397.81;;;18.49;79.32
10706;BME280;5404;42.656;23.336;2023-02-24T12:09:32;94398.03;;;18.25;79.10
10706;BME280;5404;42.656;23.336;2023-02-24T12:12:10;94404.59;;;18.08;80.81
10706;BME280;5404;42.656;23.336;2023-02-24T12:14:52;94399.81;;;18.02;81.70
10706;BME280;5404;42.656;23.336;2023-02-24T12:17:37;94394.97;;;17.92;83.52
10706;BME280;5404;42.656;23.336;2023-02-24T12:23:15;94385.56;;;17.86;82.32
10706;BME280;5404;42.656;23.336;2023-02-24T12:40:50;94380.41;;;16.23;100.00
10706;BME280;5404;42.656;23.336;2023-02-24T12:49:09;94381.09;;;15.24;100.00
10706;BME280;5404;42.656;23.336;2023-02-24T12:52:13;94389.75;;;14.97;100.00
10706;BME280;5404;42.656;23.336;2023-02-24T12:54:57;94377.78;;;14.41;100.00
10706;BME280;5404;42.656;23.336;2023-02-24T12:57:47;94390.38;;;14.29;100.00
10706;BME280;5404;42.656;23.336;2023-02-24T13:00:18;94388.34;;;14.26;100.00
10706;BME280;5404;42.656;23.336;2023-02-24T13:02:55;94375.38;;;14.28;100.00
10706;BME280;5404;42.656;23.336;2023-02-24T13:05:35;94363.00;;;14.15;100.00
10706;BME280;5404;42.656;23.336;2023-02-24T13:08:22;94358.00;;;14.13;100.00
10706;BME280;5404;42.656;23.336;2023-02-24T13:13:26;94369.00;;;14.41;100.00
10706;BME280;5404;42.656;23.336;2023-02-24T13:15:56;94359.25;;;14.69;100.00
10706;BME280;5404;42.656;23.336;2023-02-24T13:18:24;94345.50;;;14.91;100.00
10706;BME280;5404;42.656;23.336;2023-02-24T13:21:05;94351.31;;;15.05;100.00
10706;BME280;5404;42.656;23.336;2023-02-24T13:23:32;94350.56;;;15.29;100.00
10706;BME280;5404;42.656;23.336;2023-02-24T13:25:58;94345.28;;;15.08;100.00
10706;BME280;5404;42.656;23.336;2023-02-24T13:28:27;94325.34;;;14.85;100.00
10706;BME280;5404;42.656;23.336;2023-02-24T13:31:08;94339.78;;;14.92;100.00
10706;BME280;5404;42.656;23.336;2023-02-24T13:33:41;94328.16;;;14.88;100.00
10706;BME280;5404;42.656;23.336;2023-02-24T13:36:23;94320.53;;;14.78;100.00
10706;BME280;5404;42.656;23.336;2023-02-24T13:41:33;94326.34;;;14.48;100.00
10706;BME280;5404;42.656;23.336;2023-02-24T13:44:27;94335.97;;;14.49;100.00
10706;BME280;5404;42.656;23.336;2023-02-24T13:50:04;94339.88;;;14.51;100.00
10706;BME280;5404;42.656;23.336;2023-02-24T13:58:21;94342.53;;;13.69;100.00
10706;BME280;5404;42.656;23.336;2023-02-24T14:01:08;94350.53;;;13.40;100.00
10706;BME280;5404;42.656;23.336;2023-02-24T14:03:36;94357.19;;;13.34;100.00
10706;BME280;5404;42.656;23.336;2023-02-24T14:06:05;94336.81;;;13.21;100.00
10706;BME280;5404;42.656;23.336;2023-02-24T14:08:40;94357.13;;;13.13;100.00
10706;BME280;5404;42.656;23.336;2023-02-24T14:11:10;94370.25;;;12.80;100.00
10706;BME280;5404;42.656;23.336;2023-02-24T14:13:37;94366.19;;;12.66;100.00
10706;BME280;5404;42.656;23.336;2023-02-24T14:16:07;94376.59;;;12.42;100.00
10706;BME280;5404;42.656;23.336;2023-02-24T14:18:35;94380.53;;;12.27;100.00
10706;BME280;5404;42.656;23.336;2023-02-24T14:21:01;94366.56;;;12.05;100.00
10706;BME280;5404;42.656;23.336;2023-02-24T14:23:29;94373.00;;;12.04;100.00
10706;BME280;5404;42.656;23.336;2023-02-24T14:26:01;94395.13;;;12.21;100.00
10706;BME280;5404;42.656;23.336;2023-02-24T14:28:32;94399.72;;;12.21;100.00
10706;BME280;5404;42.656;23.336;2023-02-24T14:31:06;94405.53;;;12.31;100.00
10706;BME280;5404;42.656;23.336;2023-02-24T14:33:35;94392.94;;;12.40;100.00
10706;BME280;5404;42.656;23.336;2023-02-24T14:36:02;94387.13;;;12.47;100.00
10706;BME280;5404;42.656;23.336;2023-02-24T14:38:35;94380.38;;;12.49;100.00
10706;BME280;5404;42.656;23.336;2023-02-24T14:41:03;94401.59;;;12.46;100.00
10706;BME280;5404;42.656;23.336;2023-02-24T14:43:29;94401.75;;;12.41;100.00
10706;BME280;5404;42.656;23.336;2023-02-24T14:45:57;94381.00;;;12.29;100.00
10706;BME280;5404;42.656;23.336;2023-02-24T14:48:30;94391.53;;;12.43;100.00
10706;BME280;5404;42.656;23.336;2023-02-24T14:53:37;94402.22;;;12.43;100.00
10706;BME280;5404;42.656;23.336;2023-02-24T14:56:09;94402.06;;;12.31;100.00
10706;BME280;5404;42.656;23.336;2023-02-24T14:58:49;94394.53;;;12.16;100.00
10706;BME280;5404;42.656;23.336;2023-02-24T15:03:59;94384.94;;;12.32;100.00
10706;BME280;5404;42.656;23.336;2023-02-24T15:06:35;94385.56;;;12.12;100.00
10706;BME280;5404;42.656;23.336;2023-02-24T15:09:18;94397.63;;;12.01;100.00
10706;BME280;5404;42.656;23.336;2023-02-24T15:11:46;94390.09;;;12.03;100.00
10706;BME280;5404;42.656;23.336;2023-02-24T15:14:27;94382.72;;;12.08;100.00
10706;BME280;5404;42.656;23.336;2023-02-24T15:16:57;94369.06;;;11.93;100.00
10706;BME280;5404;42.656;23.336;2023-02-24T15:19:35;94383.03;;;12.07;100.00
10706;BME280;5404;42.656;23.336;2023-02-24T15:22:03;94370.00;;;11.97;100.00
10706;BME280;5404;42.656;23.336;2023-02-24T15:24:33;94385.41;;;12.00;100.00
10706;BME280;5404;42.656;23.336;2023-02-24T15:27:26;94383.78;;;11.82;100.00